sensor_id;sensor_type;location;lat;lon;timestamp;pressure;altitude;pressure_sealevel;temperature;humidity
49813;BME280;35706;52.100;5.056;2023-09-30T00:00:41;102384.47;;;14.54;100.00
49813;BME280;35706;52.100;5.056;2023-09-30T00:01:42;102384.72;;;14.29;100.00
49813;BME280;35706;52.100;5.056;2023-09-30T00:02:43;102386.31;;;14.31;100.00
49813;BME280;35706;52.100;5.056;2023-09-30T00:03:45;102386.88;;;14.46;100.00
49813;BME280;35706;52.100;5.056;2023-09-30T00:04:45;102393.59;;;14.39;100.00
49813;BME280;35706;52.100;5.056;2023-09-30T00:05:46;102387.59;;;14.48;100.00
49813;BME280;35706;52.100;5.056;2023-09-30T00:06:46;102388.44;;;14.49;100.00
49813;BME280;35706;52.100;5.056;2023-09-30T00:07:46;102388.88;;;14.54;100.00
49813;BME280;35706;52.100;5.056;2023-09-30T00:08:47;102389.25;;;14.49;100.00
49813;BME280;35706;52.100;5.056;2023-09-30T00:09:47;102380.66;;;14.36;100.00
49813;BME280;35706;52.100;5.056;2023-09-30T00:10:47;102384.94;;;14.37;100.00
49813;BME280;35706;52.100;5.056;2023-09-30T00:11:48;102382.75;;;14.64;100.00
49813;BME280;35706;52.100;5.056;2023-09-30T00:12:48;102383.22;;;14.70;100.00
49813;BME280;35706;52.100;5.056;2023-09-30T00:13:49;102395.03;;;14.54;100.00
49813;BME280;35706;52.100;5.056;2023-09-30T00:14:49;102389.75;;;14.54;100.00
49813;BME280;35706;52.100;5.056;2023-09-30T00:15:49;102394.56;;;14.60;100.00
49813;BME280;35706;52.100;5.056;2023-09-30T00:16:49;102387.44;;;14.50;100.00
49813;BME280;35706;52.100;5.056;2023-09-30T00:17:50;102394.59;;;14.38;100.00
49813;BME280;35706;52.100;5.056;2023-09-30T00:18:51;102391.06;;;14.49;100.00
49813;BME280;35706;52.100;5.056;2023-09-30T00:19:51;102392.97;;;14.69;100.00
49813;BME280;35706;52.100;5.056;2023-09-30T00:20:52;102393.31;;;14.76;100.00
49813;BME280;35706;52.100;5.056;2023-09-30T00:21:52;102394.69;;;14.59;100.00
49813;BME280;35706;52.100;5.056;2023-09-30T00:22:52;102398.50;;;14.66;100.00
49813;BME280;35706;52.100;5.056;2023-09-30T00:23:53;102394.06;;;14.66;100.00
49813;BME280;35706;52.100;5.056;2023-09-30T00:24:53;102388.25;;;14.73;100.00
49813;BME280;35706;52.100;5.056;2023-09-30T00:25:53;102396.56;;;15.00;99.85
49813;BME280;35706;52.100;5.056;2023-09-30T00:26:54;102391.44;;;14.99;100.00
49813;BME280;35706;52.100;5.056;2023-09-30T00:27:54;102393.38;;;14.97;100.00
49813;BME280;35706;52.100;5.056;2023-09-30T00:28:54;102399.94;;;14.70;100.00
49813;BME280;35706;52.100;5.056;2023-09-30T00:29:55;102405.88;;;14.40;100.00
49813;BME280;35706;52.100;5.056;2023-09-30T00:30:55;102400.56;;;14.62;100.00
49813;BME280;35706;52.100;5.056;2023-09-30T00:31:55;102406.13;;;14.37;100.00
49813;BME280;35706;52.100;5.056;2023-09-30T00:32:55;102406.50;;;14.21;100.00
49813;BME280;35706;52.100;5.056;2023-09-30T00:33:56;102405.78;;;14.19;100.00
49813;BME280;35706;52.100;5.056;2023-09-30T00:34:56;102405.50;;;14.44;100.00
49813;BME280;35706;52.100;5.056;2023-09-30T00:35:57;102410.44;;;14.49;100.00
49813;BME280;35706;52.100;5.056;2023-09-30T00:36:57;102403.25;;;14.29;100.00
49813;BME280;35706;52.100;5.056;2023-09-30T00:37:57;102402.16;;;14.42;100.00
49813;BME280;35706;52.100;5.056;2023-09-30T00:38:58;102414.56;;;14.19;100.00
49813;BME280;35706;52.100;5.056;2023-09-30T00:39:58;102407.09;;;14.36;100.00
49813;BME280;35706;52.100;5.056;2023-09-30T00:40:58;102406.13;;;14.37;100.00
49813;BME280;35706;52.100;5.056;2023-09-30T00:41:59;102403.16;;;14.19;100.00
49813;BME280;35706;52.100;5.056;2023-09-30T00:42:59;102405.66;;;14.32;100.00
49813;BME280;35706;52.100;5.056;2023-09-30T00:44:00;102408.03;;;14.46;100.00
49813;BME280;35706;52.100;5.056;2023-09-30T00:45:01;102409.25;;;14.42;100.00
49813;BME280;35706;52.100;5.056;2023-09-30T00:47:23;102418.66;;;14.23;100.00
49813;BME280;35706;52.100;5.056;2023-09-30T00:48:24;102424.63;;;14.48;100.00
49813;BME280;35706;52.100;5.056;2023-09-30T00:49:24;102421.13;;;14.48;100.00
49813;BME280;35706;52.100;5.056;2023-09-30T00:50:25;102412.56;;;14.66;100.00
49813;BME280;35706;52.100;5.056;2023-09-30T00:51:27;102413.06;;;14.60;100.00
49813;BME280;35706;52.100;5.056;2023-09-30T00:52:28;102411.78;;;14.43;100.00
49813;BME280;35706;52.100;5.056;2023-09-30T00:53:29;102406.38;;;14.34;100.00
49813;BME280;35706;52.100;5.056;2023-09-30T00:54:29;102410.53;;;14.48;100.00
49813;BME280;35706;52.100;5.056;2023-09-30T00:55:30;102405.88;;;14.40;100.00
49813;BME280;35706;52.100;5.056;2023-09-30T00:56:31;102408.25;;;14.65;100.00
49813;BME280;35706;52.100;5.056;2023-09-30T00:57:33;102413.34;;;14.57;100.00
49813;BME280;35706;52.100;5.056;2023-09-30T00:58:35;102421.28;;;14.46;100.00
49813;BME280;35706;52.100;5.056;2023-09-30T00:59:38;102426.06;;;14.52;100.00
49813;BME280;35706;52.100;5.056;2023-09-30T01:00:39;102424.91;;;14.56;100.00
49813;BME280;35706;52.100;5.056;2023-09-30T01:01:41;102417.72;;;14.79;100.00
49813;BME280;35706;52.100;5.056;2023-09-30T01:02:42;102419.81;;;14.64;100.00
49813;BME280;35706;52.100;5.056;2023-09-30T01:03:45;102419.78;;;14.76;100.00
49813;BME280;35706;52.100;5.056;2023-09-30T01:04:47;102425.69;;;14.68;100.00
49813;BME280;35706;52.100;5.056;2023-09-30T01:05:47;102421.63;;;14.64;100.00
49813;BME280;35706;52.100;5.056;2023-09-30T01:06:49;102424.94;;;14.77;100.00
49813;BME280;35706;52.100;5.056;2023-09-30T01:07:49;102422.88;;;14.81;100.00
49813;BME280;35706;52.100;5.056;2023-09-30T01:08:50;102418.19;;;14.84;100.00
49813;BME280;35706;52.100;5.056;2023-09-30T01:09:50;102427.59;;;14.77;100.00
49813;BME280;35706;52.100;5.056;2023-09-30T01:10:51;102427.13;;;14.72;100.00
49813;BME280;35706;52.100;5.056;2023-09-30T01:11:51;102428.13;;;14.71;100.00
49813;BME280;35706;52.100;5.056;2023-09-30T01:12:52;102432.03;;;14.77;100.00
49813;BME280;35706;52.100;5.056;2023-09-30T01:13:52;102428.13;;;14.71;100.00
49813;BME280;35706;52.100;5.056;2023-09-30T01:14:57;102435.91;;;14.84;100.00
49813;BME280;35706;52.100;5.056;2023-09-30T01:16:02;102442.19;;;14.60;100.00
49813;BME280;35706;52.100;5.056;2023-09-30T01:17:03;102446.75;;;14.70;100.00
49813;BME280;35706;52.100;5.056;2023-09-30T01:18:04;102447.22;;;14.75;100.00
49813;BME280;35706;52.100;5.056;2023-09-30T01:19:04;102460.78;;;14.81;100.00
49813;BME280;35706;52.100;5.056;2023-09-30T01:20:05;102454.19;;;14.76;100.00
49813;BME280;35706;52.100;5.056;2023-09-30T01:21:07;102451.00;;;14.61;100.00
49813;BME280;35706;52.100;5.056;2023-09-30T01:22:08;102454.31;;;14.52;100.00
49813;BME280;35706;52.100;5.056;2023-09-30T01:23:10;102447.00;;;14.21;100.00
49813;BME280;35706;52.100;5.056;2023-09-30T01:24:11;102447.50;;;14.38;100.00
49813;BME280;35706;52.100;5.056;2023-09-30T01:25:12;102444.47;;;14.42;100.00
49813;BME280;35706;52.100;5.056;2023-09-30T01:26:13;102442.66;;;14.54;100.00
49813;BME280;35706;52.100;5.056;2023-09-30T01:27:14;102444.72;;;14.62;100.00
49813;BME280;35706;52.100;5.056;2023-09-30T01:28:16;102451.31;;;14.45;100.00
49813;BME280;35706;52.100;5.056;2023-09-30T01:29:17;102454.31;;;14.52;100.00
49813;BME280;35706;52.100;5.056;2023-09-30T01:30:17;102448.78;;;14.55;100.00
49813;BME280;35706;52.100;5.056;2023-09-30T01:31:18;102449.50;;;14.68;100.00
49813;BME280;35706;52.100;5.056;2023-09-30T01:32:18;102449.75;;;14.76;100.00
49813;BME280;35706;52.100;5.056;2023-09-30T01:33:18;102440.25;;;14.62;100.00
49813;BME280;35706;52.100;5.056;2023-09-30T01:34:19;102446.53;;;14.50;100.00
49813;BME280;35706;52.100;5.056;2023-09-30T01:35:19;102452.75;;;14.60;100.00
49813;BME280;35706;52.100;5.056;2023-09-30T01:36:21;102453.63;;;14.61;100.00
49813;BME280;35706;52.100;5.056;2023-09-30T01:37:21;102453.03;;;14.57;100.00
49813;BME280;35706;52.100;5.056;2023-09-30T01:38:21;102450.13;;;14.49;100.00
49813;BME280;35706;52.100;5.056;2023-09-30T01:39:22;102442.09;;;14.28;100.00
49813;BME280;35706;52.100;5.056;2023-09-30T01:40:22;102446.41;;;14.18;100.00
49813;BME280;35706;52.100;5.056;2023-09-30T01:41:23;102436.56;;;14.31;100.00
49813;BME280;35706;52.100;5.056;2023-09-30T01:42:23;102436.78;;;14.28;100.00
49813;BME280;35706;52.100;5.056;2023-09-30T01:43:24;102434.28;;;14.27;100.00
49813;BME280;35706;52.100;5.056;2023-09-30T01:44:24;102442.69;;;14.32;100.00
49813;BME280;35706;52.100;5.056;2023-09-30T01:45:24;102439.06;;;14.33;100.00
49813;BME280;35706;52.100;5.056;2023-09-30T01:46:24;102438.34;;;14.19;100.00
49813;BME280;35706;52.100;5.056;2023-09-30T01:47:25;102430.44;;;14.19;100.00
49813;BME280;35706;52.100;5.056;2023-09-30T01:48:26;102425.00;;;14.32;100.00
49813;BME280;35706;52.100;5.056;2023-09-30T01:49:26;102432.22;;;14.30;100.00
49813;BME280;35706;52.100;5.056;2023-09-30T01:50:26;102421.50;;;14.54;100.00
49813;BME280;35706;52.100;5.056;2023-09-30T01:51:27;102421.38;;;14.67;100.00
49813;BME280;35706;52.100;5.056;2023-09-30T01:52:28;102413.13;;;14.81;100.00
49813;BME280;35706;52.100;5.056;2023-09-30T01:53:28;102403.66;;;14.79;100.00
49813;BME280;35706;52.100;5.056;2023-09-30T01:54:28;102411.19;;;14.83;100.00
49813;BME280;35706;52.100;5.056;2023-09-30T01:55:29;102413.44;;;14.67;100.00
49813;BME280;35706;52.100;5.056;2023-09-30T01:56:30;102405.84;;;14.74;100.00
49813;BME280;35706;52.100;5.056;2023-09-30T01:57:30;102410.56;;;14.59;100.00
49813;BME280;35706;52.100;5.056;2023-09-30T01:58:31;102417.53;;;14.60;100.00
49813;BME280;35706;52.100;5.056;2023-09-30T01:59:31;102417.91;;;14.55;100.00
49813;BME280;35706;52.100;5.056;2023-09-30T02:00:31;102424.03;;;14.56;100.00
49813;BME280;35706;52.100;5.056;2023-09-30T02:01:32;102432.09;;;14.54;100.00
49813;BME280;35706;52.100;5.056;2023-09-30T02:02:32;102433.63;;;14.68;100.00
49813;BME280;35706;52.100;5.056;2023-09-30T02:03:32;102437.75;;;14.38;100.00
49813;BME280;35706;52.100;5.056;2023-09-30T02:04:33;102442.72;;;14.20;100.00
49813;BME280;35706;52.100;5.056;2023-09-30T02:05:33;102437.28;;;14.11;100.00
49813;BME280;35706;52.100;5.056;2023-09-30T02:06:33;102438.00;;;14.01;100.00
49813;BME280;35706;52.100;5.056;2023-09-30T02:07:34;102445.34;;;13.98;100.00
49813;BME280;35706;52.100;5.056;2023-09-30T02:08:35;102443.66;;;14.08;100.00
49813;BME280;35706;52.100;5.056;2023-09-30T02:09:36;102440.66;;;14.01;100.00
49813;BME280;35706;52.100;5.056;2023-09-30T02:10:36;102441.97;;;14.07;100.00
49813;BME280;35706;52.100;5.056;2023-09-30T02:11:37;102438.94;;;14.12;100.00
49813;BME280;35706;52.100;5.056;2023-09-30T02:12:37;102448.47;;;14.14;100.00
49813;BME280;35706;52.100;5.056;2023-09-30T02:13:38;102444.00;;;14.37;100.00
49813;BME280;35706;52.100;5.056;2023-09-30T02:14:38;102448.94;;;14.42;100.00
49813;BME280;35706;52.100;5.056;2023-09-30T02:15:43;102447.25;;;14.41;100.00
49813;BME280;35706;52.100;5.056;2023-09-30T02:16:43;102449.44;;;14.24;100.00
49813;BME280;35706;52.100;5.056;2023-09-30T02:17:43;102444.25;;;14.12;100.00
49813;BME280;35706;52.100;5.056;2023-09-30T02:18:45;102443.16;;;14.25;100.00
49813;BME280;35706;52.100;5.056;2023-09-30T02:19:46;102448.13;;;14.08;100.00
49813;BME280;35706;52.100;5.056;2023-09-30T02:20:47;102437.66;;;14.06;100.00
49813;BME280;35706;52.100;5.056;2023-09-30T02:21:47;102437.63;;;14.29;100.00
49813;BME280;35706;52.100;5.056;2023-09-30T02:22:48;102436.78;;;14.28;100.00
49813;BME280;35706;52.100;5.056;2023-09-30T02:23:49;102438.94;;;14.34;100.00
49813;BME280;35706;52.100;5.056;2023-09-30T02:24:49;102437.41;;;14.32;100.00
49813;BME280;35706;52.100;5.056;2023-09-30T02:25:49;102440.25;;;14.51;100.00
49813;BME280;35706;52.100;5.056;2023-09-30T02:26:50;102431.75;;;14.25;100.00
49813;BME280;35706;52.100;5.056;2023-09-30T02:27:50;102439.56;;;14.15;100.00
49813;BME280;35706;52.100;5.056;2023-09-30T02:28:51;102439.09;;;14.21;100.00
49813;BME280;35706;52.100;5.056;2023-09-30T02:29:52;102425.63;;;14.36;100.00
49813;BME280;35706;52.100;5.056;2023-09-30T02:30:53;102428.38;;;14.23;100.00
49813;BME280;35706;52.100;5.056;2023-09-30T02:31:54;102427.31;;;14.25;100.00
49813;BME280;35706;52.100;5.056;2023-09-30T02:32:55;102423.09;;;14.34;100.00
49813;BME280;35706;52.100;5.056;2023-09-30T02:33:56;102421.50;;;14.43;100.00
49813;BME280;35706;52.100;5.056;2023-09-30T02:34:56;102420.31;;;14.36;100.00
49813;BME280;35706;52.100;5.056;2023-09-30T02:35:57;102417.69;;;14.13;100.00
49813;BME280;35706;52.100;5.056;2023-09-30T02:36:57;102419.38;;;14.14;100.00
49813;BME280;35706;52.100;5.056;2023-09-30T02:38:00;102417.31;;;14.40;100.00
49813;BME280;35706;52.100;5.056;2023-09-30T02:39:00;102424.16;;;14.43;100.00
49813;BME280;35706;52.100;5.056;2023-09-30T02:40:03;102425.03;;;14.21;100.00
49813;BME280;35706;52.100;5.056;2023-09-30T02:41:10;102422.03;;;14.14;100.00
49813;BME280;35706;52.100;5.056;2023-09-30T02:42:10;102428.75;;;14.30;100.00
49813;BME280;35706;52.100;5.056;2023-09-30T02:43:11;102421.88;;;14.38;100.00
49813;BME280;35706;52.100;5.056;2023-09-30T02:44:11;102425.72;;;14.12;100.00
49813;BME280;35706;52.100;5.056;2023-09-30T02:45:12;102429.09;;;14.14;100.00
49813;BME280;35706;52.100;5.056;2023-09-30T02:46:13;102417.41;;;14.39;100.00
49813;BME280;35706;52.100;5.056;2023-09-30T02:47:13;102418.13;;;14.52;100.00
49813;BME280;35706;52.100;5.056;2023-09-30T02:48:14;102418.84;;;14.43;100.00
49813;BME280;35706;52.100;5.056;2023-09-30T02:49:14;102415.53;;;14.18;100.00
49813;BME280;35706;52.100;5.056;2023-09-30T02:50:14;102427.69;;;14.10;100.00
49813;BME280;35706;52.100;5.056;2023-09-30T02:51:15;102422.97;;;14.13;100.00
49813;BME280;35706;52.100;5.056;2023-09-30T02:52:15;102426.44;;;14.14;100.00
49813;BME280;35706;52.100;5.056;2023-09-30T02:53:15;102425.03;;;14.21;100.00
49813;BME280;35706;52.100;5.056;2023-09-30T02:54:16;102427.78;;;14.19;100.00
49813;BME280;35706;52.100;5.056;2023-09-30T02:55:16;102426.13;;;14.18;100.00
49813;BME280;35706;52.100;5.056;2023-09-30T02:56:17;102420.81;;;14.18;100.00
49813;BME280;35706;52.100;5.056;2023-09-30T02:57:19;102425.97;;;14.31;100.00
49813;BME280;35706;52.100;5.056;2023-09-30T02:58:19;102423.81;;;14.14;100.00
49813;BME280;35706;52.100;5.056;2023-09-30T02:59:20;102409.84;;;14.34;100.00
49813;BME280;35706;52.100;5.056;2023-09-30T03:00:22;102415.41;;;14.20;100.00
49813;BME280;35706;52.100;5.056;2023-09-30T03:01:22;102414.66;;;14.18;100.00
49813;BME280;35706;52.100;5.056;2023-09-30T03:02:22;102419.13;;;14.06;100.00
49813;BME280;35706;52.100;5.056;2023-09-30T03:03:23;102421.53;;;14.09;100.00
49813;BME280;35706;52.100;5.056;2023-09-30T03:04:25;102424.53;;;14.04;100.00
49813;BME280;35706;52.100;5.056;2023-09-30T03:05:28;102423.22;;;13.99;100.00
49813;BME280;35706;52.100;5.056;2023-09-30T03:06:30;102422.41;;;14.10;100.00
49813;BME280;35706;52.100;5.056;2023-09-30T03:07:30;102418.03;;;14.20;100.00
49813;BME280;35706;52.100;5.056;2023-09-30T03:08:33;102417.59;;;14.03;100.00
49813;BME280;35706;52.100;5.056;2023-09-30T03:09:35;102414.66;;;14.18;100.00
49813;BME280;35706;52.100;5.056;2023-09-30T03:10:36;102406.97;;;14.26;100.00
49813;BME280;35706;52.100;5.056;2023-09-30T03:11:40;102418.41;;;14.27;100.00
49813;BME280;35706;52.100;5.056;2023-09-30T03:12:42;102415.25;;;14.33;100.00
49813;BME280;35706;52.100;5.056;2023-09-30T03:13:43;102413.81;;;14.40;100.00
49813;BME280;35706;52.100;5.056;2023-09-30T03:14:43;102415.97;;;14.35;100.00
49813;BME280;35706;52.100;5.056;2023-09-30T03:15:44;102423.19;;;14.33;100.00
49813;BME280;35706;52.100;5.056;2023-09-30T03:16:44;102421.53;;;14.32;100.00
49813;BME280;35706;52.100;5.056;2023-09-30T03:17:45;102414.56;;;14.19;100.00
49813;BME280;35706;52.100;5.056;2023-09-30T03:18:45;102420.69;;;14.31;100.00
49813;BME280;35706;52.100;5.056;2023-09-30T03:19:46;102418.91;;;14.20;100.00
49813;BME280;35706;52.100;5.056;2023-09-30T03:20:46;102406.16;;;14.25;100.00
49813;BME280;35706;52.100;5.056;2023-09-30T03:21:50;102413.09;;;14.38;100.00
49813;BME280;35706;52.100;5.056;2023-09-30T03:22:51;102412.13;;;14.39;100.00
49813;BME280;35706;52.100;5.056;2023-09-30T03:23:52;102404.06;;;14.40;100.00
49813;BME280;35706;52.100;5.056;2023-09-30T03:24:53;102410.91;;;14.43;100.00
49813;BME280;35706;52.100;5.056;2023-09-30T03:25:59;102416.09;;;14.44;100.00
49813;BME280;35706;52.100;5.056;2023-09-30T03:26:59;102420.69;;;14.09;100.00
49813;BME280;35706;52.100;5.056;2023-09-30T03:28:00;102406.66;;;14.08;100.00
49813;BME280;35706;52.100;5.056;2023-09-30T03:29:00;102412.25;;;14.26;100.00
49813;BME280;35706;52.100;5.056;2023-09-30T03:30:01;102403.13;;;14.30;100.00
49813;BME280;35706;52.100;5.056;2023-09-30T03:31:02;102407.38;;;14.10;100.00
49813;BME280;35706;52.100;5.056;2023-09-30T03:32:04;102406.50;;;13.98;100.00
49813;BME280;35706;52.100;5.056;2023-09-30T03:33:05;102401.59;;;14.05;100.00
49813;BME280;35706;52.100;5.056;2023-09-30T03:34:05;102412.66;;;14.10;100.00
49813;BME280;35706;52.100;5.056;2023-09-30T03:35:07;102417.44;;;13.94;100.00
49813;BME280;35706;52.100;5.056;2023-09-30T03:36:08;102417.81;;;14.00;100.00
49813;BME280;35706;52.100;5.056;2023-09-30T03:37:09;102421.88;;;14.16;100.00
49813;BME280;35706;52.100;5.056;2023-09-30T03:38:10;102428.16;;;14.03;100.00
49813;BME280;35706;52.100;5.056;2023-09-30T03:39:12;102417.59;;;14.03;100.00
49813;BME280;35706;52.100;5.056;2023-09-30T03:40:15;102422.00;;;14.03;100.00
49813;BME280;35706;52.100;5.056;2023-09-30T03:41:19;102422.00;;;13.92;100.00
49813;BME280;35706;52.100;5.056;2023-09-30T03:42:19;102424.19;;;13.87;100.00
49813;BME280;35706;52.100;5.056;2023-09-30T03:43:20;102432.94;;;13.98;100.00
49813;BME280;35706;52.100;5.056;2023-09-30T03:44:21;102429.94;;;14.03;100.00
49813;BME280;35706;52.100;5.056;2023-09-30T03:45:23;102423.56;;;13.83;100.00
49813;BME280;35706;52.100;5.056;2023-09-30T03:46:24;102425.75;;;14.00;100.00
49813;BME280;35706;52.100;5.056;2023-09-30T03:47:26;102430.56;;;14.07;100.00
49813;BME280;35706;52.100;5.056;2023-09-30T03:48:26;102421.19;;;13.91;100.00
49813;BME280;35706;52.100;5.056;2023-09-30T03:49:28;102416.72;;;14.03;100.00
49813;BME280;35706;52.100;5.056;2023-09-30T03:50:28;102417.09;;;13.98;100.00
49813;BME280;35706;52.100;5.056;2023-09-30T03:51:30;102424.19;;;13.98;100.00
49813;BME280;35706;52.100;5.056;2023-09-30T03:52:33;102420.78;;;13.73;100.00
49813;BME280;35706;52.100;5.056;2023-09-30T03:53:33;102425.03;;;13.76;100.00
49813;BME280;35706;52.100;5.056;2023-09-30T03:54:34;102419.38;;;13.92;100.00
49813;BME280;35706;52.100;5.056;2023-09-30T03:55:35;102420.69;;;13.86;100.00
49813;BME280;35706;52.100;5.056;2023-09-30T03:56:37;102425.63;;;14.02;100.00
49813;BME280;35706;52.100;5.056;2023-09-30T03:57:38;102423.94;;;14.01;100.00
49813;BME280;35706;52.100;5.056;2023-09-30T03:58:42;102421.44;;;13.99;100.00
49813;BME280;35706;52.100;5.056;2023-09-30T03:59:43;102423.34;;;13.97;100.00
49813;BME280;35706;52.100;5.056;2023-09-30T04:00:46;102430.41;;;13.97;100.00
49813;BME280;35706;52.100;5.056;2023-09-30T04:01:46;102430.19;;;13.89;100.00
49813;BME280;35706;52.100;5.056;2023-09-30T04:02:48;102426.47;;;14.02;100.00
49813;BME280;35706;52.100;5.056;2023-09-30T04:03:49;102420.47;;;13.89;100.00
49813;BME280;35706;52.100;5.056;2023-09-30T04:04:49;102422.63;;;14.07;100.00
49813;BME280;35706;52.100;5.056;2023-09-30T04:05:53;102425.63;;;14.02;100.00
49813;BME280;35706;52.100;5.056;2023-09-30T04:06:53;102413.47;;;14.11;100.00
49813;BME280;35706;52.100;5.056;2023-09-30T04:07:54;102413.38;;;14.12;100.00
49813;BME280;35706;52.100;5.056;2023-09-30T04:08:54;102424.41;;;13.95;100.00
49813;BME280;35706;52.100;5.056;2023-09-30T04:09:55;102416.47;;;13.95;100.00
49813;BME280;35706;52.100;5.056;2023-09-30T04:10:55;102415.28;;;13.88;100.00
49813;BME280;35706;52.100;5.056;2023-09-30T04:11:55;102414.34;;;13.89;100.00
49813;BME280;35706;52.100;5.056;2023-09-30T04:12:56;102427.91;;;14.07;100.00
49813;BME280;35706;52.100;5.056;2023-09-30T04:13:56;102419.38;;;14.03;100.00
49813;BME280;35706;52.100;5.056;2023-09-30T04:14:57;102422.41;;;14.10;100.00
49813;BME280;35706;52.100;5.056;2023-09-30T04:15:58;102422.63;;;14.07;100.00
49813;BME280;35706;52.100;5.056;2023-09-30T04:16:58;102420.34;;;14.13;100.00
49813;BME280;35706;52.100;5.056;2023-09-30T04:17:58;102425.03;;;14.10;100.00
49813;BME280;35706;52.100;5.056;2023-09-30T04:18:59;102433.78;;;13.99;100.00
49813;BME280;35706;52.100;5.056;2023-09-30T04:19:59;102422.50;;;14.08;100.00
49813;BME280;35706;52.100;5.056;2023-09-30T04:20:59;102426.94;;;14.19;100.00
49813;BME280;35706;52.100;5.056;2023-09-30T04:22:00;102425.63;;;14.02;100.00
49813;BME280;35706;52.100;5.056;2023-09-30T04:23:00;102421.53;;;14.20;100.00
49813;BME280;35706;52.100;5.056;2023-09-30T04:24:02;102415.75;;;14.38;100.00
49813;BME280;35706;52.100;5.056;2023-09-30T04:25:04;102418.50;;;14.36;100.00
49813;BME280;35706;52.100;5.056;2023-09-30T04:26:10;102428.16;;;14.37;100.00
49813;BME280;35706;52.100;5.056;2023-09-30T04:27:11;102433.91;;;14.09;100.00
49813;BME280;35706;52.100;5.056;2023-09-30T04:28:12;102432.59;;;14.03;100.00
49813;BME280;35706;52.100;5.056;2023-09-30T04:29:13;102430.69;;;14.16;100.00
49813;BME280;35706;52.100;5.056;2023-09-30T04:30:14;102439.44;;;14.17;100.00
49813;BME280;35706;52.100;5.056;2023-09-30T04:31:15;102438.84;;;14.13;100.00
49813;BME280;35706;52.100;5.056;2023-09-30T04:32:15;102428.50;;;14.21;100.00
49813;BME280;35706;52.100;5.056;2023-09-30T04:33:16;102435.97;;;14.28;100.00
49813;BME280;35706;52.100;5.056;2023-09-30T04:34:20;102429.34;;;14.11;100.00
49813;BME280;35706;52.100;5.056;2023-09-30T04:35:21;102431.53;;;14.17;100.00
49813;BME280;35706;52.100;5.056;2023-09-30T04:36:22;102433.81;;;14.10;100.00
49813;BME280;35706;52.100;5.056;2023-09-30T04:37:23;102435.25;;;14.14;100.00
49813;BME280;35706;52.100;5.056;2023-09-30T04:38:23;102438.47;;;14.07;100.00
49813;BME280;35706;52.100;5.056;2023-09-30T04:39:23;102436.22;;;14.02;100.00
49813;BME280;35706;52.100;5.056;2023-09-30T04:40:24;102443.28;;;14.13;100.00
49813;BME280;35706;52.100;5.056;2023-09-30T04:41:24;102441.38;;;14.03;100.00
49813;BME280;35706;52.100;5.056;2023-09-30T04:42:25;102444.34;;;13.99;100.00
49813;BME280;35706;52.100;5.056;2023-09-30T04:43:26;102442.31;;;14.02;100.00
49813;BME280;35706;52.100;5.056;2023-09-30T04:44:29;102447.41;;;14.05;100.00
49813;BME280;35706;52.100;5.056;2023-09-30T04:45:31;102444.97;;;14.14;100.00
49813;BME280;35706;52.100;5.056;2023-09-30T04:46:31;102444.97;;;14.14;100.00
49813;BME280;35706;52.100;5.056;2023-09-30T04:47:31;102442.69;;;13.98;100.00
49813;BME280;35706;52.100;5.056;2023-09-30T04:48:32;102445.31;;;14.09;100.00
49813;BME280;35706;52.100;5.056;2023-09-30T04:49:32;102444.03;;;14.03;100.00
49813;BME280;35706;52.100;5.056;2023-09-30T04:50:33;102441.84;;;14.09;100.00
49813;BME280;35706;52.100;5.056;2023-09-30T04:51:33;102442.22;;;14.15;100.00
49813;BME280;35706;52.100;5.056;2023-09-30T04:52:34;102446.31;;;14.08;100.00
49813;BME280;35706;52.100;5.056;2023-09-30T04:53:35;102448.94;;;14.08;100.00
49813;BME280;35706;52.100;5.056;2023-09-30T04:54:35;102448.22;;;14.06;100.00
49813;BME280;35706;52.100;5.056;2023-09-30T04:55:35;102451.56;;;13.97;100.00
49813;BME280;35706;52.100;5.056;2023-09-30T04:56:37;102451.56;;;13.97;100.00
49813;BME280;35706;52.100;5.056;2023-09-30T04:57:39;102451.22;;;14.01;100.00
49813;BME280;35706;52.100;5.056;2023-09-30T04:58:39;102451.34;;;14.11;100.00
49813;BME280;35706;52.100;5.056;2023-09-30T04:59:40;102457.81;;;14.07;100.00
49813;BME280;35706;52.100;5.056;2023-09-30T05:00:40;102456.88;;;14.19;100.00
49813;BME280;35706;52.100;5.056;2023-09-30T05:01:40;102455.44;;;14.27;100.00
49813;BME280;35706;52.100;5.056;2023-09-30T05:02:41;102457.72;;;14.31;100.00
49813;BME280;35706;52.100;5.056;2023-09-30T05:03:41;102456.78;;;14.10;100.00
49813;BME280;35706;52.100;5.056;2023-09-30T05:04:41;102460.72;;;14.15;100.00
49813;BME280;35706;52.100;5.056;2023-09-30T05:05:42;102455.22;;;14.18;100.00
49813;BME280;35706;52.100;5.056;2023-09-30T05:06:43;102454.47;;;14.16;100.00
49813;BME280;35706;52.100;5.056;2023-09-30T05:07:44;102450.03;;;14.05;100.00
49813;BME280;35706;52.100;5.056;2023-09-30T05:08:47;102453.38;;;13.96;100.00
49813;BME280;35706;52.100;5.056;2023-09-30T05:09:50;102451.34;;;14.11;100.00
49813;BME280;35706;52.100;5.056;2023-09-30T05:10:51;102447.00;;;13.99;100.00
49813;BME280;35706;52.100;5.056;2023-09-30T05:11:51;102451.56;;;13.97;100.00
49813;BME280;35706;52.100;5.056;2023-09-30T05:12:52;102452.28;;;13.99;100.00
49813;BME280;35706;52.100;5.056;2023-09-30T05:13:54;102451.34;;;14.11;100.00
49813;BME280;35706;52.100;5.056;2023-09-30T05:14:54;102451.09;;;14.25;100.00
49813;BME280;35706;52.100;5.056;2023-09-30T05:15:54;102448.19;;;14.29;100.00